F/V Calebarian — FVXO — position and weather

sailwx.info

Track history (hours):
 
Tides and Currents Weather Stations Pressure Air Temp Water Temp Dewpoint Dewpoint Depression Visibility Wind Speed Wind Dir Waves Ship Positions

F/V Calebarian

Last reported at 2017-Sep-20 08:26 UTC. Time now 2017-Sep-22 10:07 UTC.
Position N 46°44' W 002°21'.

Length 22 m.

Type: Fishing. MMSI: 227834000.

Date/timePositionNaut miles runAvg speedWind from/ knotsBaromVisibWave heightAir tempDewpointWater temp
2017-Sep-20 08:26N 46°44' W 002°21'0 0.0
2017-Sep-20 08:00N 46°44' W 002°21'2 0.1
2017-Sep-18 16:29N 46°43' W 002°17'6 9.0
2017-Sep-18 15:47N 46°36' W 002°17'3 9.5
2017-Sep-18 15:27N 46°33' W 002°18'4 9.7
2017-Sep-18 15:00N 46°29' W 002°18'26 1.2
2017-Sep-17 17:17N 46°08' W 001°57'3 9.9
2017-Sep-17 16:59N 46°10' W 001°53'5 9.9
2017-Sep-17 16:30N 46°12' W 001°47'5 9.8
2017-Sep-17 16:00N 46°14' W 001°41'1 2.5
2017-Sep-17 15:30N 46°15' W 001°39'1 1.1
2017-Sep-17 15:00N 46°14' W 001°39'1 1.3
2017-Sep-17 14:28N 46°14' W 001°38'1 1.3
2017-Sep-17 14:00N 46°13' W 001°38'1 1.2
2017-Sep-17 13:28N 46°13' W 001°37'1 1.4
2017-Sep-17 12:54N 46°12' W 001°36'1 1.4
2017-Sep-17 12:30N 46°12' W 001°36'2 3.9
2017-Sep-17 11:59N 46°13' W 001°38'1 2.3
2017-Sep-17 11:30N 46°14' W 001°39'1 1.6
2017-Sep-17 11:00N 46°13' W 001°38'1 1.4
2017-Sep-17 10:30N 46°13' W 001°38'1 1.0
2017-Sep-17 10:00N 46°13' W 001°37'0 0.0
2017-Sep-17 09:30N 46°13' W 001°37'0 0.0
2017-Sep-17 08:58N 46°13' W 001°37'0 0.0
2017-Sep-17 08:30N 46°13' W 001°37'0 0.0
2017-Sep-17 08:00N 46°13' W 001°37'0 0.0
2017-Sep-17 07:30N 46°13' W 001°37'0 0.0
2017-Sep-17 07:00N 46°13' W 001°37'0 0.0
2017-Sep-17 06:30N 46°13' W 001°37'1 1.3
2017-Sep-17 06:00N 46°13' W 001°38'0 0.1
2017-Sep-17 05:30N 46°13' W 001°38'0 0.7
2017-Sep-17 04:55N 46°13' W 001°38'3 7.3
2017-Sep-17 04:31N 46°16' W 001°40'5 9.4
2017-Sep-17 04:00N 46°20' W 001°43'5 9.2
2017-Sep-17 03:30N 46°25' W 001°45'5 9.2
2017-Sep-17 03:00N 46°29' W 001°47'1 2.2
2017-Sep-17 02:30N 46°30' W 001°48'0 0.0
2017-Sep-17 02:00N 46°30' W 001°48'0 0.0
2017-Sep-17 01:31N 46°30' W 001°48'0 0.0
2017-Sep-17 01:00N 46°30' W 001°48'0 0.0
2017-Sep-17 00:30N 46°30' W 001°48'0 0.0
2017-Sep-17 00:00N 46°30' W 001°48'0 0.0
2017-Sep-16 23:30N 46°30' W 001°48'0 0.0
2017-Sep-16 23:00N 46°30' W 001°48'0 0.0
2017-Sep-16 22:30N 46°30' W 001°48'0 0.0
2017-Sep-16 22:00N 46°30' W 001°48'0 0.0
2017-Sep-16 21:30N 46°30' W 001°48'0 0.0
2017-Sep-16 21:00N 46°30' W 001°48'0 0.1
2017-Sep-16 20:30N 46°30' W 001°47'4 8.9
2017-Sep-16 20:00N 46°26' W 001°45'5 9.3
2017-Sep-16 19:30N 46°21' W 001°43'5 9.7
2017-Sep-16 19:00N 46°17' W 001°40'2 5.0
2017-Sep-16 18:30N 46°15' W 001°38'1 1.2
2017-Sep-16 18:00N 46°14' W 001°39'0 0.6
2017-Sep-16 17:30N 46°14' W 001°39'0 0.5
2017-Sep-16 17:00N 46°14' W 001°39'0 0.9
2017-Sep-16 16:30N 46°14' W 001°38'1 1.0
2017-Sep-16 16:00N 46°13' W 001°38'0 0.6
2017-Sep-16 15:30N 46°13' W 001°38'0 0.7
2017-Sep-16 14:59N 46°13' W 001°37'1 1.0
2017-Sep-16 14:24N 46°12' W 001°37'0 0.9
2017-Sep-16 14:00N 46°12' W 001°36'3 6.4
2017-Sep-16 13:30N 46°14' W 001°40'0 0.9
2017-Sep-16 13:00N 46°14' W 001°40'0 1.0
2017-Sep-16 12:30N 46°14' W 001°39'0 0.9
2017-Sep-16 12:00N 46°13' W 001°39'1 1.1
2017-Sep-16 11:30N 46°13' W 001°38'1 1.3
2017-Sep-16 11:00N 46°12' W 001°37'1 1.2
2017-Sep-16 10:14N 46°12' W 001°36'0 0.1
2017-Sep-16 07:23N 46°12' W 001°36'0 0.1
2017-Sep-16 07:01N 46°12' W 001°36'0 0.0
2017-Sep-16 06:31N 46°12' W 001°36'0 0.2
2017-Sep-16 05:50N 46°12' W 001°36'0 0.5
2017-Sep-16 05:30N 46°11' W 001°36'3 6.9
2017-Sep-16 05:00N 46°14' W 001°40'2 3.7
2017-Sep-16 04:30N 46°13' W 001°37'1 0.9
2017-Sep-16 03:02N 46°12' W 001°37'0 0.3
2017-Sep-16 02:57N 46°12' W 001°37'0 0.1
2017-Sep-16 02:29N 46°12' W 001°37'0 0.0
2017-Sep-16 01:59N 46°12' W 001°37'0 0.0
2017-Sep-16 01:27N 46°12' W 001°37'0 0.0
2017-Sep-16 00:58N 46°12' W 001°37'0 0.0
2017-Sep-16 00:20N 46°12' W 001°37'0 0.0
2017-Sep-15 23:59N 46°12' W 001°37'0 0.0
2017-Sep-15 23:26N 46°12' W 001°37'0 0.0
2017-Sep-15 23:00N 46°12' W 001°37'0 0.0
2017-Sep-15 22:30N 46°12' W 001°37'0 0.0
2017-Sep-15 22:00N 46°12' W 001°37'0 0.0
2017-Sep-15 21:29N 46°12' W 001°37'0 0.0
2017-Sep-15 21:00N 46°12' W 001°37'0 0.0
2017-Sep-15 20:28N 46°12' W 001°37'0 0.0
2017-Sep-15 20:00N 46°12' W 001°37'0 0.0
2017-Sep-15 19:30N 46°12' W 001°37'2 2.6
2017-Sep-15 18:55N 46°13' W 001°37'2 3.8
2017-Sep-15 18:23N 46°14' W 001°40'0 0.3
2017-Sep-15 18:00N 46°14' W 001°40'0 0.8
2017-Sep-15 17:30N 46°14' W 001°39'0 0.8
2017-Sep-15 17:00N 46°14' W 001°39'0 0.8
2017-Sep-15 16:30N 46°13' W 001°39'0 0.9
2017-Sep-15 16:00N 46°13' W 001°38'1 1.2
2017-Sep-15 15:30N 46°13' W 001°39'1 2.2
2017-Sep-15 15:00N 46°14' W 001°40'1 1.1
2017-Sep-15 14:30N 46°14' W 001°40'0 0.8
2017-Sep-15 14:00N 46°13' W 001°39'0 1.0
2017-Sep-15 13:30N 46°13' W 001°39'1 1.1
2017-Sep-15 12:55N 46°12' W 001°38'2 6.0
2017-Sep-15 12:30N 46°14' W 001°41'1 1.0
2017-Sep-15 12:00N 46°14' W 001°40'0 1.0
2017-Sep-15 11:30N 46°13' W 001°40'0 0.8
2017-Sep-15 11:00N 46°13' W 001°40'1 1.1
2017-Sep-15 10:30N 46°12' W 001°39'0 0.9
2017-Sep-15 10:00N 46°12' W 001°39'0 0.1
2017-Sep-15 09:26N 46°12' W 001°39'0 0.1
2017-Sep-15 09:00N 46°12' W 001°39'0 0.0
2017-Sep-15 08:29N 46°12' W 001°39'0 0.0
2017-Sep-15 07:51N 46°12' W 001°39'0 0.0
2017-Sep-15 07:30N 46°12' W 001°39'0 0.0
2017-Sep-15 07:00N 46°12' W 001°39'0 0.0
2017-Sep-15 06:30N 46°12' W 001°39'0 0.1
2017-Sep-15 06:00N 46°12' W 001°39'2 4.7
2017-Sep-15 05:30N 46°14' W 001°40'2 2.9
2017-Sep-15 04:59N 46°13' W 001°40'4 7.6
2017-Sep-15 04:30N 46°16' W 001°42'4 8.7
2017-Sep-15 04:00N 46°20' W 001°44'4 8.8
2017-Sep-15 03:30N 46°24' W 001°45'4 8.9
2017-Sep-15 03:00N 46°29' W 001°47'1 2.3
2017-Sep-15 02:31N 46°30' W 001°48'0 0.0
2017-Sep-15 02:00N 46°30' W 001°48'0 0.0
2017-Sep-15 01:30N 46°30' W 001°48'0 0.0
2017-Sep-15 01:00N 46°30' W 001°48'0 0.0
2017-Sep-15 00:30N 46°30' W 001°48'0 0.0
2017-Sep-15 00:00N 46°30' W 001°48'0 0.0
2017-Sep-14 23:30N 46°30' W 001°48'0 0.0
2017-Sep-14 23:00N 46°30' W 001°48'0 0.0
2017-Sep-14 22:30N 46°30' W 001°48'0 0.0
2017-Sep-14 22:00N 46°30' W 001°48'0 0.0
2017-Sep-14 21:30N 46°30' W 001°48'0 0.0
2017-Sep-14 21:00N 46°30' W 001°48'0 0.0
2017-Sep-14 20:30N 46°30' W 001°48'0 0.1
2017-Sep-14 20:00N 46°30' W 001°47'0 0.0
2017-Sep-14 19:30N 46°30' W 001°47'0 0.7
2017-Sep-14 19:00N 46°29' W 001°48'4 8.6
2017-Sep-14 18:30N 46°26' W 001°51'5 9.4
2017-Sep-14 18:00N 46°22' W 001°55'6 9.5
2017-Sep-14 17:25N 46°18' W 002°01'32 1.2
2017-Sep-13 14:39N 45°52' W 002°28'0 0.0
2017-Sep-13 14:23N 45°52' W 002°28'29 4.1
2017-Sep-13 07:17N 46°17' W 002°07'2 7.8
2017-Sep-13 06:59N 46°19' W 002°05'4 7.5
2017-Sep-13 06:30N 46°21' W 002°01'4 7.3
2017-Sep-13 06:01N 46°24' W 001°57'4 7.4
2017-Sep-13 05:30N 46°26' W 001°53'4 7.3
2017-Sep-13 05:00N 46°28' W 001°48'2 4.1
2017-Sep-13 04:30N 46°30' W 001°47'1 1.9
2017-Sep-13 04:00N 46°29' W 001°47'1 2.7
2017-Sep-13 03:30N 46°28' W 001°49'3 5.0
2017-Sep-13 03:00N 46°27' W 001°52'3 5.1
2017-Sep-13 02:30N 46°26' W 001°55'3 5.1
2017-Sep-13 02:00N 46°25' W 001°59'3 6.4
2017-Sep-13 01:30N 46°24' W 002°03'3 6.3
2017-Sep-13 01:01N 46°23' W 002°08'3 6.6
2017-Sep-13 00:30N 46°22' W 002°12'  
Track history (hours):
 
Tides and Currents Weather Stations Pressure Air Temp Water Temp Dewpoint Dewpoint Depression Visibility Wind Speed Wind Dir Waves Ship Positions

F/V Calebarian

Last reported at 2017-Sep-20 08:26 UTC. Time now 2017-Sep-22 10:07 UTC.
Position N 46°44' W 002°21'.

Length 22 m.

Type: Fishing. MMSI: 227834000.

Date/timePositionNaut miles runAvg speedWind from/ knotsBaromVisibWave heightAir tempDewpointWater temp
2017-Sep-20 08:26N 46°44' W 002°21'0 0.0
2017-Sep-20 08:00N 46°44' W 002°21'2 0.1
2017-Sep-18 16:29N 46°43' W 002°17'6 9.0
2017-Sep-18 15:47N 46°36' W 002°17'3 9.5
2017-Sep-18 15:27N 46°33' W 002°18'4 9.7
2017-Sep-18 15:00N 46°29' W 002°18'26 1.2
2017-Sep-17 17:17N 46°08' W 001°57'3 9.9
2017-Sep-17 16:59N 46°10' W 001°53'5 9.9
2017-Sep-17 16:30N 46°12' W 001°47'5 9.8
2017-Sep-17 16:00N 46°14' W 001°41'1 2.5
2017-Sep-17 15:30N 46°15' W 001°39'1 1.1
2017-Sep-17 15:00N 46°14' W 001°39'1 1.3
2017-Sep-17 14:28N 46°14' W 001°38'1 1.3
2017-Sep-17 14:00N 46°13' W 001°38'1 1.2
2017-Sep-17 13:28N 46°13' W 001°37'1 1.4
2017-Sep-17 12:54N 46°12' W 001°36'1 1.4
2017-Sep-17 12:30N 46°12' W 001°36'2 3.9
2017-Sep-17 11:59N 46°13' W 001°38'1 2.3
2017-Sep-17 11:30N 46°14' W 001°39'1 1.6
2017-Sep-17 11:00N 46°13' W 001°38'1 1.4
2017-Sep-17 10:30N 46°13' W 001°38'1 1.0
2017-Sep-17 10:00N 46°13' W 001°37'0 0.0
2017-Sep-17 09:30N 46°13' W 001°37'0 0.0
2017-Sep-17 08:58N 46°13' W 001°37'0 0.0
2017-Sep-17 08:30N 46°13' W 001°37'0 0.0
2017-Sep-17 08:00N 46°13' W 001°37'0 0.0
2017-Sep-17 07:30N 46°13' W 001°37'0 0.0
2017-Sep-17 07:00N 46°13' W 001°37'0 0.0
2017-Sep-17 06:30N 46°13' W 001°37'1 1.3
2017-Sep-17 06:00N 46°13' W 001°38'0 0.1
2017-Sep-17 05:30N 46°13' W 001°38'0 0.7
2017-Sep-17 04:55N 46°13' W 001°38'3 7.3
2017-Sep-17 04:31N 46°16' W 001°40'5 9.4
2017-Sep-17 04:00N 46°20' W 001°43'5 9.2
2017-Sep-17 03:30N 46°25' W 001°45'5 9.2
2017-Sep-17 03:00N 46°29' W 001°47'1 2.2
2017-Sep-17 02:30N 46°30' W 001°48'0 0.0
2017-Sep-17 02:00N 46°30' W 001°48'0 0.0
2017-Sep-17 01:31N 46°30' W 001°48'0 0.0
2017-Sep-17 01:00N 46°30' W 001°48'0 0.0
2017-Sep-17 00:30N 46°30' W 001°48'0 0.0
2017-Sep-17 00:00N 46°30' W 001°48'0 0.0
2017-Sep-16 23:30N 46°30' W 001°48'0 0.0
2017-Sep-16 23:00N 46°30' W 001°48'0 0.0
2017-Sep-16 22:30N 46°30' W 001°48'0 0.0
2017-Sep-16 22:00N 46°30' W 001°48'0 0.0
2017-Sep-16 21:30N 46°30' W 001°48'0 0.0
2017-Sep-16 21:00N 46°30' W 001°48'0 0.1
2017-Sep-16 20:30N 46°30' W 001°47'4 8.9
2017-Sep-16 20:00N 46°26' W 001°45'5 9.3
2017-Sep-16 19:30N 46°21' W 001°43'5 9.7
2017-Sep-16 19:00N 46°17' W 001°40'2 5.0
2017-Sep-16 18:30N 46°15' W 001°38'1 1.2
2017-Sep-16 18:00N 46°14' W 001°39'0 0.6
2017-Sep-16 17:30N 46°14' W 001°39'0 0.5
2017-Sep-16 17:00N 46°14' W 001°39'0 0.9
2017-Sep-16 16:30N 46°14' W 001°38'1 1.0
2017-Sep-16 16:00N 46°13' W 001°38'0 0.6
2017-Sep-16 15:30N 46°13' W 001°38'0 0.7
2017-Sep-16 14:59N 46°13' W 001°37'1 1.0
2017-Sep-16 14:24N 46°12' W 001°37'0 0.9
2017-Sep-16 14:00N 46°12' W 001°36'3 6.4
2017-Sep-16 13:30N 46°14' W 001°40'0 0.9
2017-Sep-16 13:00N 46°14' W 001°40'0 1.0
2017-Sep-16 12:30N 46°14' W 001°39'0 0.9
2017-Sep-16 12:00N 46°13' W 001°39'1 1.1
2017-Sep-16 11:30N 46°13' W 001°38'1 1.3
2017-Sep-16 11:00N 46°12' W 001°37'1 1.2
2017-Sep-16 10:14N 46°12' W 001°36'0 0.1
2017-Sep-16 07:23N 46°12' W 001°36'0 0.1
2017-Sep-16 07:01N 46°12' W 001°36'0 0.0
2017-Sep-16 06:31N 46°12' W 001°36'0 0.2
2017-Sep-16 05:50N 46°12' W 001°36'0 0.5
2017-Sep-16 05:30N 46°11' W 001°36'3 6.9
2017-Sep-16 05:00N 46°14' W 001°40'2 3.7
2017-Sep-16 04:30N 46°13' W 001°37'1 0.9
2017-Sep-16 03:02N 46°12' W 001°37'0 0.3
2017-Sep-16 02:57N 46°12' W 001°37'0 0.1
2017-Sep-16 02:29N 46°12' W 001°37'0 0.0
2017-Sep-16 01:59N 46°12' W 001°37'0 0.0
2017-Sep-16 01:27N 46°12' W 001°37'0 0.0
2017-Sep-16 00:58N 46°12' W 001°37'0 0.0
2017-Sep-16 00:20N 46°12' W 001°37'0 0.0
2017-Sep-15 23:59N 46°12' W 001°37'0 0.0
2017-Sep-15 23:26N 46°12' W 001°37'0 0.0
2017-Sep-15 23:00N 46°12' W 001°37'0 0.0
2017-Sep-15 22:30N 46°12' W 001°37'0 0.0
2017-Sep-15 22:00N 46°12' W 001°37'0 0.0
2017-Sep-15 21:29N 46°12' W 001°37'0 0.0
2017-Sep-15 21:00N 46°12' W 001°37'0 0.0
2017-Sep-15 20:28N 46°12' W 001°37'0 0.0
2017-Sep-15 20:00N 46°12' W 001°37'0 0.0
2017-Sep-15 19:30N 46°12' W 001°37'2 2.6
2017-Sep-15 18:55N 46°13' W 001°37'2 3.8
2017-Sep-15 18:23N 46°14' W 001°40'0 0.3
2017-Sep-15 18:00N 46°14' W 001°40'0 0.8
2017-Sep-15 17:30N 46°14' W 001°39'0 0.8
2017-Sep-15 17:00N 46°14' W 001°39'0 0.8
2017-Sep-15 16:30N 46°13' W 001°39'0 0.9
2017-Sep-15 16:00N 46°13' W 001°38'1 1.2
2017-Sep-15 15:30N 46°13' W 001°39'1 2.2
2017-Sep-15 15:00N 46°14' W 001°40'1 1.1
2017-Sep-15 14:30N 46°14' W 001°40'0 0.8
2017-Sep-15 14:00N 46°13' W 001°39'0 1.0
2017-Sep-15 13:30N 46°13' W 001°39'1 1.1
2017-Sep-15 12:55N 46°12' W 001°38'2 6.0
2017-Sep-15 12:30N 46°14' W 001°41'1 1.0
2017-Sep-15 12:00N 46°14' W 001°40'0 1.0
2017-Sep-15 11:30N 46°13' W 001°40'0 0.8
2017-Sep-15 11:00N 46°13' W 001°40'1 1.1
2017-Sep-15 10:30N 46°12' W 001°39'0 0.9
2017-Sep-15 10:00N 46°12' W 001°39'0 0.1
2017-Sep-15 09:26N 46°12' W 001°39'0 0.1
2017-Sep-15 09:00N 46°12' W 001°39'0 0.0
2017-Sep-15 08:29N 46°12' W 001°39'0 0.0
2017-Sep-15 07:51N 46°12' W 001°39'0 0.0
2017-Sep-15 07:30N 46°12' W 001°39'0 0.0
2017-Sep-15 07:00N 46°12' W 001°39'0 0.0
2017-Sep-15 06:30N 46°12' W 001°39'0 0.1
2017-Sep-15 06:00N 46°12' W 001°39'2 4.7
2017-Sep-15 05:30N 46°14' W 001°40'2 2.9
2017-Sep-15 04:59N 46°13' W 001°40'4 7.6
2017-Sep-15 04:30N 46°16' W 001°42'4 8.7
2017-Sep-15 04:00N 46°20' W 001°44'4 8.8
2017-Sep-15 03:30N 46°24' W 001°45'4 8.9
2017-Sep-15 03:00N 46°29' W 001°47'1 2.3
2017-Sep-15 02:31N 46°30' W 001°48'0 0.0
2017-Sep-15 02:00N 46°30' W 001°48'0 0.0
2017-Sep-15 01:30N 46°30' W 001°48'0 0.0
2017-Sep-15 01:00N 46°30' W 001°48'0 0.0
2017-Sep-15 00:30N 46°30' W 001°48'0 0.0
2017-Sep-15 00:00N 46°30' W 001°48'0 0.0
2017-Sep-14 23:30N 46°30' W 001°48'0 0.0
2017-Sep-14 23:00N 46°30' W 001°48'0 0.0
2017-Sep-14 22:30N 46°30' W 001°48'0 0.0
2017-Sep-14 22:00N 46°30' W 001°48'0 0.0
2017-Sep-14 21:30N 46°30' W 001°48'0 0.0
2017-Sep-14 21:00N 46°30' W 001°48'0 0.0
2017-Sep-14 20:30N 46°30' W 001°48'0 0.1
2017-Sep-14 20:00N 46°30' W 001°47'0 0.0
2017-Sep-14 19:30N 46°30' W 001°47'0 0.7
2017-Sep-14 19:00N 46°29' W 001°48'4 8.6
2017-Sep-14 18:30N 46°26' W 001°51'5 9.4
2017-Sep-14 18:00N 46°22' W 001°55'6 9.5
2017-Sep-14 17:25N 46°18' W 002°01'32 1.2
2017-Sep-13 14:39N 45°52' W 002°28'0 0.0
2017-Sep-13 14:23N 45°52' W 002°28'29 4.1
2017-Sep-13 07:17N 46°17' W 002°07'2 7.8
2017-Sep-13 06:59N 46°19' W 002°05'4 7.5
2017-Sep-13 06:30N 46°21' W 002°01'4 7.3
2017-Sep-13 06:01N 46°24' W 001°57'4 7.4
2017-Sep-13 05:30N 46°26' W 001°53'4 7.3
2017-Sep-13 05:00N 46°28' W 001°48'2 4.1
2017-Sep-13 04:30N 46°30' W 001°47'1 1.9
2017-Sep-13 04:00N 46°29' W 001°47'1 2.7
2017-Sep-13 03:30N 46°28' W 001°49'3 5.0
2017-Sep-13 03:00N 46°27' W 001°52'3 5.1
2017-Sep-13 02:30N 46°26' W 001°55'3 5.1
2017-Sep-13 02:00N 46°25' W 001°59'3 6.4
2017-Sep-13 01:30N 46°24' W 002°03'3 6.3
2017-Sep-13 01:01N 46°23' W 002°08'3 6.6
2017-Sep-13 00:30N 46°22' W 002°12'  

Dump ship's entire track history